createdAt,value
2023-03-22T00:00:28.009Z,4.22
2023-03-22T00:02:54.458Z,3.53
2023-03-22T00:05:20.926Z,3.83
2023-03-22T00:07:47.352Z,4.15
2023-03-22T00:10:13.761Z,3.92
2023-03-22T00:12:40.150Z,3.97
2023-03-22T00:15:06.708Z,3.58
2023-03-22T00:17:33.085Z,3.90
2023-03-22T00:19:59.525Z,3.10
2023-03-22T00:22:25.997Z,3.58
2023-03-22T00:24:52.412Z,3.17
2023-03-22T00:27:18.850Z,3.30
2023-03-22T00:29:45.265Z,3.00
2023-03-22T00:32:11.704Z,3.05
2023-03-22T00:34:38.217Z,3.53
2023-03-22T00:37:04.616Z,2.92
2023-03-22T00:39:31.066Z,3.40
2023-03-22T00:41:57.452Z,3.25
2023-03-22T00:44:23.910Z,3.30
2023-03-22T00:46:50.364Z,2.72
2023-03-22T00:49:16.765Z,2.72
2023-03-22T00:51:43.184Z,3.08
2023-03-22T00:54:09.565Z,2.83
2023-03-22T00:56:35.933Z,3.83
2023-03-22T00:59:02.355Z,2.90
2023-03-22T01:01:28.753Z,3.08
2023-03-22T01:03:55.275Z,3.08
2023-03-22T01:06:21.822Z,3.17
2023-03-22T01:08:48.222Z,2.80
2023-03-22T01:11:14.684Z,2.88
2023-03-22T01:13:41.140Z,3.28
2023-03-22T01:16:07.849Z,3.17
2023-03-22T01:18:34.401Z,2.53
2023-03-22T01:21:00.854Z,2.33
2023-03-22T01:23:27.250Z,2.67
2023-03-22T01:25:53.656Z,2.70
2023-03-22T01:28:20.161Z,2.28
2023-03-22T01:30:46.947Z,2.17
2023-03-22T01:33:13.389Z,2.63
2023-03-22T01:35:39.836Z,1.88
2023-03-22T01:38:06.320Z,2.33
2023-03-22T01:40:32.723Z,2.47
2023-03-22T01:42:59.129Z,2.05
2023-03-22T01:45:25.600Z,2.50
2023-03-22T01:47:52.142Z,2.50
2023-03-22T01:50:18.683Z,2.33
2023-03-22T01:52:45.078Z,2.70
2023-03-22T01:55:11.463Z,2.08
2023-03-22T01:57:38.035Z,2.10
2023-03-22T02:00:04.431Z,2.22
2023-03-22T02:02:30.993Z,2.40
2023-03-22T02:04:57.465Z,2.55
2023-03-22T02:07:23.903Z,2.33
2023-03-22T02:09:50.352Z,2.25
2023-03-22T02:12:16.946Z,2.63
2023-03-22T02:14:43.406Z,2.08
2023-03-22T02:17:09.778Z,2.22
2023-03-22T02:19:36.212Z,1.98
2023-03-22T02:22:02.597Z,2.17
2023-03-22T02:24:28.976Z,2.30
2023-03-22T02:26:55.386Z,2.08
2023-03-22T02:29:21.758Z,1.83
2023-03-22T02:31:48.197Z,2.00
2023-03-22T02:34:14.591Z,2.40
2023-03-22T02:36:40.998Z,2.20
2023-03-22T02:39:07.430Z,2.15
2023-03-22T02:41:33.847Z,2.20
2023-03-22T02:44:00.279Z,2.50
2023-03-22T02:46:26.716Z,2.70
2023-03-22T02:48:53.199Z,2.70
2023-03-22T02:51:19.632Z,2.35
2023-03-22T02:53:46.297Z,2.63
2023-03-22T02:56:12.706Z,2.45
2023-03-22T02:58:39.144Z,2.67
2023-03-22T03:01:05.640Z,2.95
2023-03-22T03:03:32.104Z,2.88
2023-03-22T03:05:58.499Z,3.20
2023-03-22T03:08:24.972Z,3.10
2023-03-22T03:10:51.394Z,3.20
2023-03-22T03:13:17.821Z,3.05
2023-03-22T03:15:44.233Z,3.60
2023-03-22T03:18:10.602Z,3.72
2023-03-22T03:20:37.364Z,4.30
2023-03-22T03:23:03.913Z,3.33
2023-03-22T03:25:30.303Z,3.70
2023-03-22T03:27:56.725Z,3.40
2023-03-22T03:30:23.117Z,3.30
2023-03-22T03:32:49.597Z,3.92
2023-03-22T03:35:16.222Z,4.10
2023-03-22T03:37:42.671Z,4.22
2023-03-22T03:40:09.070Z,4.53
2023-03-22T03:42:35.461Z,4.43
2023-03-22T03:45:01.871Z,4.45
2023-03-22T03:47:28.300Z,3.88
2023-03-22T03:49:54.739Z,4.43
2023-03-22T03:52:21.164Z,4.93
2023-03-22T03:54:47.581Z,4.32
2023-03-22T03:57:13.997Z,5.30
2023-03-22T03:59:40.421Z,5.28
2023-03-22T04:02:07.077Z,4.63
2023-03-22T04:04:33.509Z,5.10
2023-03-22T04:06:59.883Z,5.00
2023-03-22T04:09:26.333Z,4.57
2023-03-22T04:11:52.800Z,5.80
2023-03-22T04:14:19.206Z,4.82
2023-03-22T04:16:45.607Z,4.80
2023-03-22T04:19:12.373Z,5.28
2023-03-22T04:21:38.788Z,4.95
2023-03-22T04:24:05.236Z,4.65
2023-03-22T04:26:31.683Z,5.25
2023-03-22T04:28:58.109Z,4.93
2023-03-22T04:31:24.574Z,4.70
2023-03-22T04:33:51.046Z,5.05
2023-03-22T04:36:17.581Z,5.03
2023-03-22T04:38:44.053Z,4.85
2023-03-22T04:41:10.474Z,4.68
2023-03-22T04:43:37.034Z,4.28
2023-03-22T04:46:03.477Z,4.35
2023-03-22T04:48:29.880Z,5.22
2023-03-22T04:50:56.261Z,4.93
2023-03-22T04:53:22.629Z,5.13
2023-03-22T04:55:49.077Z,5.25
2023-03-22T04:58:15.458Z,4.38
2023-03-22T05:00:42.127Z,4.38
2023-03-22T05:03:08.765Z,4.05
2023-03-22T05:05:35.209Z,4.18
2023-03-22T05:08:01.593Z,4.40
2023-03-22T05:10:27.961Z,3.97
2023-03-22T05:12:54.328Z,4.55
2023-03-22T05:15:20.724Z,3.72
2023-03-22T05:17:47.154Z,3.75
2023-03-22T05:20:13.572Z,4.15
2023-03-22T05:22:40.012Z,3.97
2023-03-22T05:25:06.653Z,3.70
2023-03-22T05:27:33.179Z,3.42
2023-03-22T05:29:59.566Z,3.42
2023-03-22T05:32:26.011Z,4.07
2023-03-22T05:34:52.466Z,3.97
2023-03-22T05:37:18.940Z,4.03
2023-03-22T05:39:45.334Z,3.80
2023-03-22T05:42:11.748Z,3.25
2023-03-22T05:44:38.165Z,3.90
2023-03-22T05:47:04.601Z,3.42
2023-03-22T05:49:31.083Z,3.67
2023-03-22T05:51:57.531Z,2.97
2023-03-22T05:54:23.994Z,3.20
2023-03-22T05:56:50.422Z,3.08
2023-03-22T05:59:16.878Z,3.22
2023-03-22T06:01:43.350Z,3.92
2023-03-22T06:04:09.798Z,3.45
2023-03-22T06:06:36.280Z,3.35
2023-03-22T06:09:15.904Z,3.10
2023-03-22T06:11:43.591Z,3.00
2023-03-22T06:14:10.062Z,2.90
2023-03-22T06:16:36.555Z,3.28
2023-03-22T06:19:03.152Z,3.33
2023-03-22T06:21:29.596Z,3.03
2023-03-22T06:23:55.993Z,3.50
2023-03-22T06:26:22.493Z,2.80
2023-03-22T06:28:48.975Z,2.88
2023-03-22T06:31:15.493Z,2.63
2023-03-22T06:33:41.989Z,2.90
2023-03-22T06:36:08.408Z,2.28
2023-03-22T06:38:34.851Z,2.83
2023-03-22T06:41:01.257Z,2.80
2023-03-22T06:43:27.803Z,2.50
2023-03-22T06:45:54.293Z,2.30
2023-03-22T06:48:20.787Z,2.50
2023-03-22T06:50:47.299Z,2.40
2023-03-22T06:53:13.750Z,2.15
2023-03-22T06:55:40.220Z,2.67
2023-03-22T06:58:06.686Z,2.50
2023-03-22T07:00:33.200Z,2.90
2023-03-22T07:02:59.613Z,2.40
2023-03-22T07:05:26.071Z,3.30
2023-03-22T07:07:52.456Z,3.30
2023-03-22T07:10:18.950Z,2.88
2023-03-22T07:12:45.599Z,3.20
2023-03-22T07:15:12.002Z,2.88
2023-03-22T07:17:38.535Z,2.42
2023-03-22T07:20:04.954Z,2.40
2023-03-22T07:22:31.360Z,2.70
2023-03-22T07:24:59.923Z,2.67
2023-03-22T07:27:27.741Z,2.58
2023-03-22T07:29:54.218Z,2.47
2023-03-22T07:32:20.769Z,2.45
2023-03-22T07:34:47.250Z,2.38
2023-03-22T07:37:13.687Z,2.25
2023-03-22T07:39:40.114Z,3.20
2023-03-22T07:42:06.862Z,2.58
2023-03-22T07:44:33.384Z,2.20
2023-03-22T07:46:59.857Z,2.28
2023-03-22T07:49:26.361Z,2.83
2023-03-22T07:51:52.808Z,2.80
2023-03-22T07:54:32.509Z,2.70
2023-03-22T07:57:00.063Z,2.70
2023-03-22T07:59:26.511Z,3.00
2023-03-22T08:01:53.045Z,2.47
2023-03-22T08:04:19.531Z,2.78
2023-03-22T08:06:45.948Z,2.95
2023-03-22T08:09:12.560Z,2.25
2023-03-22T08:11:39.730Z,2.33
2023-03-22T08:14:06.309Z,2.80
2023-03-22T08:16:32.810Z,2.38
2023-03-22T08:18:59.305Z,2.60
2023-03-22T08:21:25.692Z,2.70
2023-03-22T08:23:52.129Z,2.97
2023-03-22T08:26:18.545Z,2.88
2023-03-22T08:28:44.982Z,3.92
2023-03-22T08:31:13.258Z,3.25
2023-03-22T08:33:40.380Z,3.20
2023-03-22T08:36:06.845Z,3.50
2023-03-22T08:38:33.241Z,3.70
2023-03-22T08:40:59.703Z,3.50
2023-03-22T08:43:26.101Z,2.95
2023-03-22T08:45:52.550Z,3.10
2023-03-22T08:48:19.046Z,3.03
2023-03-22T08:50:45.641Z,3.50
2023-03-22T08:53:12.194Z,3.10
2023-03-22T08:55:39.081Z,2.88
2023-03-22T08:58:05.658Z,3.00
2023-03-22T09:00:45.972Z,3.45
2023-03-22T09:03:14.874Z,2.63
2023-03-22T09:05:41.703Z,3.00
2023-03-22T09:08:08.296Z,3.20
2023-03-22T09:10:34.754Z,3.20
2023-03-22T09:13:01.148Z,3.17
2023-03-22T09:15:27.613Z,3.60
2023-03-22T09:17:54.029Z,3.55
2023-03-22T09:20:20.494Z,3.53
2023-03-22T09:22:46.969Z,3.33
2023-03-22T09:25:13.583Z,3.67
2023-03-22T09:27:40.097Z,3.58
2023-03-22T09:30:06.669Z,3.00
2023-03-22T09:32:33.672Z,3.47
2023-03-22T09:35:00.180Z,2.72
2023-03-22T09:37:26.586Z,3.03
2023-03-22T09:39:52.966Z,3.13
2023-03-22T09:42:19.403Z,3.17
2023-03-22T09:44:45.816Z,3.47
2023-03-22T09:47:12.379Z,3.55
2023-03-22T09:49:52.684Z,3.60
2023-03-22T09:52:20.069Z,3.20
2023-03-22T09:54:46.609Z,2.70
2023-03-22T09:57:13.179Z,3.78
2023-03-22T09:59:39.636Z,3.10
2023-03-22T10:02:06.212Z,3.05
2023-03-22T10:04:32.749Z,3.20
2023-03-22T10:06:59.144Z,3.13
2023-03-22T10:09:25.578Z,2.50
2023-03-22T10:11:52.029Z,3.10
2023-03-22T10:14:18.498Z,2.72
2023-03-22T10:16:44.955Z,2.58
2023-03-22T10:19:11.349Z,2.97
2023-03-22T10:21:37.752Z,2.90
2023-03-22T10:24:04.147Z,2.20
2023-03-22T10:26:30.578Z,2.70
2023-03-22T10:28:56.976Z,2.60
2023-03-22T10:31:23.572Z,2.47
2023-03-22T10:33:50.040Z,2.40
2023-03-22T10:36:16.628Z,2.70
2023-03-22T10:38:43.077Z,2.60
2023-03-22T10:41:09.488Z,2.75
2023-03-22T10:43:35.885Z,2.33
2023-03-22T10:46:02.376Z,2.60
2023-03-22T10:48:28.980Z,2.40
2023-03-22T10:50:55.495Z,2.20
2023-03-22T10:53:22.122Z,2.42
2023-03-22T10:55:48.540Z,2.53
2023-03-22T10:58:14.984Z,2.83
2023-03-22T11:00:42.518Z,2.40
2023-03-22T11:03:09.026Z,2.90
2023-03-22T11:05:35.498Z,2.00
2023-03-22T11:08:01.915Z,2.40
2023-03-22T11:10:28.394Z,2.20
2023-03-22T11:12:54.905Z,2.55
2023-03-22T11:15:21.347Z,2.60
2023-03-22T11:17:47.741Z,2.20
2023-03-22T11:20:14.283Z,2.63
2023-03-22T11:22:40.743Z,2.00
2023-03-22T11:25:07.188Z,1.92
2023-03-22T11:27:33.577Z,2.58
2023-03-22T11:29:59.982Z,2.50
2023-03-22T11:32:26.446Z,2.38
2023-03-22T11:34:52.936Z,2.78
2023-03-22T11:37:19.326Z,2.03
2023-03-22T11:39:45.831Z,2.42
2023-03-22T11:42:12.506Z,3.28
2023-03-22T11:44:38.949Z,2.28
2023-03-22T11:47:05.430Z,1.65
2023-03-22T11:49:31.985Z,2.58
2023-03-22T11:51:58.431Z,2.60
2023-03-22T11:54:24.867Z,2.78
2023-03-22T11:56:51.467Z,2.60
2023-03-22T11:59:17.889Z,2.40
2023-03-22T12:01:44.339Z,2.58
2023-03-22T12:04:10.826Z,2.70
2023-03-22T12:06:37.752Z,2.20
2023-03-22T12:09:04.248Z,2.60
2023-03-22T12:11:30.658Z,2.20
2023-03-22T12:13:57.121Z,2.47
2023-03-22T12:16:24.882Z,2.70
2023-03-22T12:18:51.540Z,2.80
2023-03-22T12:21:17.982Z,2.28
2023-03-22T12:23:44.402Z,1.90
2023-03-22T12:26:10.846Z,1.60
2023-03-22T12:28:37.676Z,1.85
2023-03-22T12:31:04.159Z,2.08
2023-03-22T12:33:30.616Z,2.00
2023-03-22T12:35:57.225Z,1.90
2023-03-22T12:38:23.644Z,1.75
2023-03-22T12:40:50.092Z,2.00
2023-03-22T12:43:17.587Z,1.70
2023-03-22T12:45:44.028Z,1.65
2023-03-22T12:48:10.664Z,2.17
2023-03-22T12:50:37.191Z,2.65
2023-03-22T12:53:03.660Z,2.10
2023-03-22T12:55:30.145Z,1.60
2023-03-22T12:57:56.537Z,1.70
2023-03-22T13:00:22.950Z,1.88
2023-03-22T13:02:49.440Z,2.28
2023-03-22T13:05:15.913Z,1.80
2023-03-22T13:07:42.365Z,2.10
2023-03-22T13:10:08.764Z,1.70
2023-03-22T13:12:35.167Z,1.98
2023-03-22T13:15:01.576Z,2.40
2023-03-22T13:17:28.019Z,1.92
2023-03-22T13:19:54.463Z,1.58
2023-03-22T13:22:20.932Z,1.65
2023-03-22T13:24:47.392Z,2.10
2023-03-22T13:27:13.792Z,1.77
2023-03-22T13:29:40.203Z,2.60
2023-03-22T13:32:06.830Z,1.80
2023-03-22T13:34:33.298Z,2.53
2023-03-22T13:36:59.770Z,1.75
2023-03-22T13:39:26.223Z,1.90
2023-03-22T13:41:52.679Z,1.90
2023-03-22T13:44:19.133Z,1.85
2023-03-22T13:46:45.791Z,1.98
2023-03-22T13:49:12.428Z,1.50
2023-03-22T13:51:38.891Z,2.25
2023-03-22T13:54:05.339Z,1.90
2023-03-22T13:56:31.809Z,2.10
2023-03-22T13:58:58.238Z,1.92
2023-03-22T14:01:24.660Z,2.20
2023-03-22T14:03:51.162Z,2.55
2023-03-22T14:06:17.585Z,2.33
2023-03-22T14:08:44.000Z,2.15
2023-03-22T14:11:10.482Z,2.10
2023-03-22T14:13:37.001Z,1.95
2023-03-22T14:16:03.419Z,1.95
2023-03-22T14:18:29.853Z,1.80
2023-03-22T14:20:56.253Z,2.05
